Time;durP1;ratioP1;P1;durP2;ratioP2;P2;SDS_P1;SDS_P2;PMS_P1;PMS_P2;Temp;Humidity;BMP_temperature;BMP_pressure;BME280_temperature;BME280_humidity;BME280_pressure;Samples;Min_cycle;Max_cycle;Signal;HPM_P1;HPM_P2
2022/08/02 00:00:17;;;;;;;4.97;3.22;;;14.10;99.90;;;;;;5072468;28;20047;-68
2022/08/02 00:02:44;;;;;;;7.30;3.15;;;14.00;99.90;;;;;;5070698;28;20055;-68
2022/08/02 00:05:11;;;;;;;7.63;3.30;;;14.10;99.90;;;;;;5071081;28;20219;-68
2022/08/02 00:07:37;;;;;;;7.82;3.25;;;14.10;99.90;;;;;;5070980;28;20143;-67
2022/08/02 00:10:04;;;;;;;7.25;3.15;;;14.20;99.90;;;;;;5070702;28;20119;-68
2022/08/02 00:12:30;;;;;;;4.95;3.22;;;14.20;99.90;;;;;;5071759;28;20029;-68
2022/08/02 00:14:56;;;;;;;6.57;2.95;;;14.20;99.90;;;;;;5072193;28;20098;-68
2022/08/02 00:17:22;;;;;;;6.18;2.90;;;14.30;99.90;;;;;;5072286;28;20124;-68
2022/08/02 00:19:47;;;;;;;6.70;3.13;;;14.30;99.90;;;;;;5072252;28;20076;-68
2022/08/02 00:22:13;;;;;;;6.18;3.20;;;14.30;99.90;;;;;;5074902;28;20102;-68
2022/08/02 00:24:38;;;;;;;7.80;3.47;;;14.20;99.90;;;;;;5073986;28;20041;-67
2022/08/02 00:27:06;;;;;;;8.70;3.60;;;14.30;99.90;;;;;;5072059;28;20044;-68
2022/08/02 00:29:33;;;;;;;5.25;3.45;;;14.30;99.90;;;;;;5070638;28;20454;-68
2022/08/02 00:31:58;;;;;;;5.95;3.50;;;14.30;99.90;;;;;;5072125;28;20094;-67
2022/08/02 00:34:24;;;;;;;10.15;4.05;;;14.30;99.90;;;;;;5070441;28;20493;-68
2022/08/02 00:36:50;;;;;;;10.23;4.10;;;14.40;99.90;;;;;;5070660;28;20140;-68
2022/08/02 00:39:15;;;;;;;8.68;3.58;;;14.40;99.90;;;;;;5071908;28;20044;-67
2022/08/02 00:41:49;;;;;;;9.93;4.20;;;14.40;99.90;;;;;;5072369;28;20207;-68
2022/08/02 00:44:16;;;;;;;8.90;4.30;;;14.40;99.90;;;;;;5072714;28;20102;-68
2022/08/02 00:46:42;;;;;;;8.15;4.25;;;14.40;99.90;;;;;;5071170;28;20166;-68
2022/08/02 00:49:07;;;;;;;8.63;3.75;;;14.30;99.90;;;;;;5071641;28;20047;-68
2022/08/02 00:51:33;;;;;;;5.97;4.20;;;14.30;99.90;;;;;;5071515;28;20032;-68
2022/08/02 00:53:59;;;;;;;10.27;4.45;;;14.30;99.90;;;;;;5071382;28;20048;-68
2022/08/02 00:56:24;;;;;;;8.48;3.88;;;14.20;99.90;;;;;;5070111;28;20044;-68
2022/08/02 00:58:50;;;;;;;9.82;4.55;;;14.10;99.90;;;;;;5071536;28;20045;-67
2022/08/02 01:01:15;;;;;;;6.78;4.20;;;14.20;99.90;;;;;;5071413;28;20469;-68
2022/08/02 01:03:41;;;;;;;10.73;4.70;;;14.20;99.90;;;;;;5071130;28;20109;-68
2022/08/02 01:06:07;;;;;;;8.93;5.13;;;14.20;99.90;;;;;;5071302;28;20511;-68
2022/08/02 01:08:32;;;;;;;13.45;4.47;;;14.10;99.90;;;;;;5071106;28;20116;-67
2022/08/02 01:10:58;;;;;;;9.25;4.63;;;14.10;99.90;;;;;;5070318;28;20059;-68
2022/08/02 01:13:25;;;;;;;8.90;4.85;;;14.10;99.90;;;;;;5071074;28;20090;-68
2022/08/02 01:16:00;;;;;;;7.70;4.53;;;14.10;99.90;;;;;;5071279;28;20040;-68
2022/08/02 01:18:37;;;;;;;10.63;4.53;;;14.10;99.90;;;;;;5069684;28;20036;-68
2022/08/02 01:21:23;;;;;;;9.88;4.95;;;14.00;99.90;;;;;;5069030;28;20048;-68
2022/08/02 01:24:04;;;;;;;8.45;5.00;;;14.00;99.90;;;;;;5071039;28;20051;-68
2022/08/02 01:26:45;;;;;;;8.90;4.97;;;14.00;99.90;;;;;;5071089;28;20127;-67
2022/08/02 01:29:11;;;;;;;9.85;5.10;;;14.00;99.90;;;;;;5071139;28;20151;-67
2022/08/02 01:31:39;;;;;;;14.02;5.82;;;14.00;99.90;;;;;;5071496;28;20154;-67
2022/08/02 01:34:17;;;;;;;14.45;5.07;;;13.90;99.90;;;;;;5071343;28;20040;-67
2022/08/02 01:37:01;;;;;;;11.57;5.43;;;14.00;99.90;;;;;;5070926;28;20105;-67
2022/08/02 01:39:29;;;;;;;9.75;4.90;;;13.90;99.90;;;;;;5069455;28;20558;-67
2022/08/02 01:41:56;;;;;;;11.50;5.65;;;13.90;99.90;;;;;;5069831;28;20076;-67
2022/08/02 01:44:24;;;;;;;9.48;4.80;;;13.90;99.90;;;;;;5068822;28;20037;-67
2022/08/02 01:46:52;;;;;;;12.82;6.18;;;13.90;99.90;;;;;;5068946;28;20045;-66
2022/08/02 01:49:21;;;;;;;12.38;5.50;;;13.80;99.90;;;;;;5070564;28;20374;-67
2022/08/02 01:54:36;;;;;;;11.18;5.20;;;13.80;99.90;;;;;;5070341;28;20161;-67
2022/08/02 01:57:05;;;;;;;9.50;5.75;;;13.80;99.90;;;;;;5052456;28;20044;-67
2022/08/02 01:59:32;;;;;;;11.05;6.00;;;13.70;99.90;;;;;;5068728;28;20048;-67
2022/08/02 02:01:59;;;;;;;11.00;5.60;;;13.70;99.90;;;;;;5070019;28;20076;-67
2022/08/02 02:04:27;;;;;;;12.57;5.63;;;13.80;99.90;;;;;;5068420;28;20051;-67
2022/08/02 02:06:56;;;;;;;12.55;6.03;;;13.60;99.90;;;;;;5069757;28;20055;-67
2022/08/02 02:09:26;;;;;;;11.68;6.10;;;13.60;99.90;;;;;;5069894;28;20098;-67
2022/08/02 02:11:53;;;;;;;16.05;5.70;;;13.70;99.90;;;;;;5068983;28;20045;-67
2022/08/02 02:14:20;;;;;;;12.73;5.53;;;13.50;99.90;;;;;;5068485;28;20045;-67
2022/08/02 02:16:48;;;;;;;9.23;5.50;;;13.50;99.90;;;;;;5070315;28;20036;-66
2022/08/02 02:19:17;;;;;;;10.18;5.07;;;13.50;99.90;;;;;;5070181;28;20044;-66
2022/08/02 02:21:42;;;;;;;9.15;5.50;;;13.50;99.90;;;;;;5069982;28;20119;-66
2022/08/02 02:24:08;;;;;;;10.93;5.50;;;13.50;99.90;;;;;;5068280;28;20056;-67
2022/08/02 02:26:36;;;;;;;9.50;5.28;;;13.50;99.90;;;;;;5068817;28;20044;-67
2022/08/02 02:29:04;;;;;;;10.40;5.97;;;13.50;99.90;;;;;;5070012;28;20129;-67
2022/08/02 02:31:36;;;;;;;9.15;6.18;;;13.40;99.90;;;;;;5069993;28;20025;-67
2022/08/02 02:34:14;;;;;;;7.43;5.28;;;13.50;99.90;;;;;;5068972;28;20041;-67
2022/08/02 02:36:47;;;;;;;13.95;5.72;;;13.50;99.90;;;;;;5070052;28;20046;-67
2022/08/02 02:39:14;;;;;;;10.98;5.88;;;13.50;99.90;;;;;;5070049;28;20055;-67
2022/08/02 02:41:42;;;;;;;10.30;6.13;;;13.40;99.90;;;;;;5069079;28;20739;-67
2022/08/02 02:44:10;;;;;;;9.68;5.35;;;13.40;99.90;;;;;;5068761;28;20055;-67
2022/08/02 02:46:36;;;;;;;6.93;5.20;;;13.20;99.90;;;;;;5069740;28;20036;-67
2022/08/02 02:49:02;;;;;;;11.45;5.90;;;13.20;99.90;;;;;;5069553;28;20041;-67
2022/08/02 02:51:29;;;;;;;12.82;6.25;;;13.20;99.90;;;;;;5069656;28;20090;-67
2022/08/02 02:53:55;;;;;;;8.52;6.22;;;13.10;99.90;;;;;;5069281;28;20479;-67
2022/08/02 02:56:22;;;;;;;12.70;5.85;;;13.20;99.90;;;;;;5069545;28;20067;-67
2022/08/02 02:58:47;;;;;;;18.67;6.50;;;13.20;99.90;;;;;;5069653;28;20358;-67
2022/08/02 03:01:32;;;;;;;11.43;6.00;;;13.20;99.90;;;;;;5069793;28;20078;-67
2022/08/02 03:04:05;;;;;;;12.98;5.57;;;13.20;99.90;;;;;;5067954;28;20048;-67
2022/08/02 03:06:31;;;;;;;10.15;6.20;;;13.10;99.90;;;;;;5069505;28;20047;-67
2022/08/02 03:08:56;;;;;;;12.50;6.40;;;13.10;99.90;;;;;;5069589;28;20044;-67
2022/08/02 03:11:23;;;;;;;10.85;5.75;;;13.10;99.90;;;;;;5069556;28;20045;-67
2022/08/02 03:13:50;;;;;;;12.60;5.70;;;13.10;99.90;;;;;;5069026;28;20029;-67
2022/08/02 03:16:16;;;;;;;12.20;6.10;;;13.10;99.90;;;;;;5068064;28;20041;-67
2022/08/02 03:18:43;;;;;;;9.73;6.03;;;13.10;99.90;;;;;;5069377;28;20056;-68
2022/08/02 03:21:10;;;;;;;14.38;5.82;;;13.20;99.90;;;;;;5069315;28;20052;-68
2022/08/02 03:23:37;;;;;;;12.15;6.15;;;13.20;99.90;;;;;;5068306;28;20482;-68
2022/08/02 03:26:03;;;;;;;13.00;5.88;;;13.10;99.90;;;;;;5071020;28;20036;-67
2022/08/02 03:28:29;;;;;;;13.90;6.05;;;13.10;99.90;;;;;;5070196;28;20036;-67
2022/08/02 03:30:54;;;;;;;13.35;7.07;;;13.20;99.90;;;;;;5069505;28;20041;-67
2022/08/02 03:33:22;;;;;;;11.55;6.32;;;13.30;99.90;;;;;;5069181;28;20401;-68
2022/08/02 03:35:49;;;;;;;11.48;6.45;;;13.30;99.90;;;;;;5069041;28;20537;-68
2022/08/02 03:38:17;;;;;;;9.63;6.30;;;13.30;99.90;;;;;;5067795;28;20044;-68
2022/08/02 03:40:43;;;;;;;15.73;6.65;;;13.20;99.90;;;;;;5069188;28;20062;-68
2022/08/02 03:43:10;;;;;;;11.98;6.53;;;13.20;99.90;;;;;;5067232;28;20529;-68
2022/08/02 03:45:38;;;;;;;9.75;6.50;;;13.20;99.90;;;;;;5072425;28;20512;-68
2022/08/02 03:48:05;;;;;;;13.52;7.05;;;13.20;99.90;;;;;;5071751;28;20044;-68
2022/08/02 03:50:32;;;;;;;11.50;5.93;;;13.20;99.90;;;;;;5072741;28;20133;-68
2022/08/02 03:52:58;;;;;;;12.15;6.72;;;13.10;99.90;;;;;;5071994;28;20048;-67
2022/08/02 03:55:24;;;;;;;11.60;5.95;;;13.00;99.90;;;;;;5070774;28;20087;-67
2022/08/02 03:57:51;;;;;;;9.13;6.05;;;12.90;99.90;;;;;;5070536;28;20145;-67
2022/08/02 04:00:19;;;;;;;10.68;6.22;;;12.90;99.90;;;;;;5071137;28;20131;-68
2022/08/02 04:02:45;;;;;;;14.00;7.45;;;12.90;99.90;;;;;;5070867;28;20052;-68
2022/08/02 04:05:10;;;;;;;13.15;6.82;;;12.80;99.90;;;;;;5072548;28;20047;-68
2022/08/02 04:07:36;;;;;;;14.40;7.05;;;12.90;99.90;;;;;;5072420;28;20484;-67
2022/08/02 04:10:02;;;;;;;15.05;6.82;;;12.90;99.90;;;;;;5070979;28;20041;-68
2022/08/02 04:12:28;;;;;;;19.60;7.10;;;12.80;99.90;;;;;;5072088;28;20109;-68
2022/08/02 04:14:54;;;;;;;11.32;6.88;;;12.70;99.90;;;;;;5072451;28;20032;-68
2022/08/02 04:17:21;;;;;;;13.10;7.35;;;12.80;99.90;;;;;;5071299;28;20071;-68
2022/08/02 04:19:55;;;;;;;11.20;7.00;;;12.80;99.90;;;;;;5071070;28;20412;-68
2022/08/02 04:22:24;;;;;;;15.50;7.00;;;13.00;99.90;;;;;;5070562;28;20049;-67
2022/08/02 04:24:53;;;;;;;15.30;6.80;;;13.10;99.90;;;;;;5071046;28;20049;-68
2022/08/02 04:27:19;;;;;;;14.25;7.13;;;13.20;99.90;;;;;;5070985;28;20089;-68
2022/08/02 04:29:46;;;;;;;13.48;7.45;;;13.20;99.90;;;;;;5072010;28;20465;-67
2022/08/02 04:32:13;;;;;;;11.85;7.20;;;13.20;99.90;;;;;;5070527;28;20075;-68
2022/08/02 04:34:38;;;;;;;15.85;6.97;;;13.20;99.90;;;;;;5072067;28;20032;-67
2022/08/02 04:37:05;;;;;;;12.50;7.65;;;13.20;99.90;;;;;;5071998;28;20074;-68
2022/08/02 04:39:30;;;;;;;14.85;7.40;;;13.20;99.90;;;;;;5070705;28;20113;-68
2022/08/02 04:41:56;;;;;;;17.35;7.43;;;13.20;99.90;;;;;;5071462;28;20103;-68
2022/08/02 04:44:21;;;;;;;14.90;8.93;;;13.20;99.90;;;;;;5072064;28;20047;-68
2022/08/02 04:46:47;;;;;;;13.13;7.60;;;13.30;99.90;;;;;;5072987;28;20118;-68
2022/08/02 04:49:13;;;;;;;14.45;7.75;;;13.50;99.90;;;;;;5072429;28;20048;-68
2022/08/02 04:51:42;;;;;;;16.80;8.27;;;13.50;99.90;;;;;;5070596;28;20177;-68
2022/08/02 04:54:09;;;;;;;15.25;7.57;;;13.70;99.90;;;;;;5053582;28;20036;-67
2022/08/02 04:56:35;;;;;;;17.02;7.82;;;13.70;99.90;;;;;;5069589;28;20040;-67
2022/08/02 04:59:01;;;;;;;18.38;8.10;;;13.90;99.90;;;;;;5070832;28;20044;-67
2022/08/02 05:01:26;;;;;;;17.65;7.43;;;14.00;99.90;;;;;;5070673;28;20082;-68
2022/08/02 05:03:52;;;;;;;13.05;7.80;;;14.10;99.90;;;;;;5071563;28;20044;-68
2022/08/02 05:06:20;;;;;;;16.10;7.43;;;14.20;99.90;;;;;;5070232;28;20227;-68
2022/08/02 05:08:47;;;;;;;15.13;7.45;;;14.30;99.90;;;;;;5070042;28;20055;-67
2022/08/02 05:11:12;;;;;;;10.68;7.38;;;14.20;99.90;;;;;;5071398;28;20040;-68
2022/08/02 05:13:40;;;;;;;15.48;7.88;;;14.10;99.90;;;;;;5071107;28;20082;-68
2022/08/02 05:16:06;;;;;;;11.65;7.97;;;14.30;99.90;;;;;;5069848;28;20040;-68
2022/08/02 05:18:31;;;;;;;16.85;7.82;;;14.40;99.90;;;;;;5071370;28;20036;-68
2022/08/02 05:20:57;;;;;;;15.05;7.85;;;14.60;99.90;;;;;;5071047;28;20037;-68
2022/08/02 05:23:23;;;;;;;10.43;7.75;;;14.70;99.90;;;;;;5071024;28;20044;-68
2022/08/02 05:25:48;;;;;;;20.77;8.13;;;14.80;99.90;;;;;;5071041;28;20048;-68
2022/08/02 05:28:14;;;;;;;16.70;7.93;;;14.90;99.90;;;;;;5071042;28;20070;-68
2022/08/02 05:30:39;;;;;;;16.08;7.90;;;15.00;99.90;;;;;;5070856;28;20029;-68
2022/08/02 05:33:05;;;;;;;13.48;7.40;;;15.00;99.90;;;;;;5070715;28;20036;-68
2022/08/02 05:35:32;;;;;;;11.27;7.63;;;15.20;99.90;;;;;;5070918;28;20040;-68
2022/08/02 05:37:57;;;;;;;17.40;7.22;;;15.20;99.90;;;;;;5069291;28;20037;-68
2022/08/02 05:40:23;;;;;;;10.70;8.32;;;15.40;99.90;;;;;;5069223;28;20519;-68
2022/08/02 05:42:49;;;;;;;15.73;7.80;;;15.40;99.90;;;;;;5068720;28;20509;-68
2022/08/02 05:45:14;;;;;;;14.93;6.97;;;15.60;99.90;;;;;;5070391;28;20119;-68
2022/08/02 05:47:40;;;;;;;12.45;8.23;;;15.80;99.90;;;;;;5070584;28;20060;-68
2022/08/02 05:50:07;;;;;;;15.02;7.57;;;15.80;99.90;;;;;;5070571;28;20044;-68
2022/08/02 05:52:48;;;;;;;12.57;7.40;;;15.80;99.90;;;;;;5068885;28;20333;-68
2022/08/02 05:55:23;;;;;;;9.88;7.00;;;16.00;99.90;;;;;;5070394;28;20046;-68
2022/08/02 05:58:04;;;;;;;15.70;8.43;;;16.20;99.90;;;;;;5070373;28;20045;-69
2022/08/02 06:00:31;;;;;;;11.65;6.90;;;16.20;99.90;;;;;;5070602;28;20115;-68
2022/08/02 06:03:20;;;;;;;12.55;6.95;;;16.30;99.90;;;;;;5070030;28;20453;-68
2022/08/02 06:05:59;;;;;;;13.57;6.63;;;16.40;99.90;;;;;;5071219;28;20106;-68
2022/08/02 06:08:37;;;;;;;18.73;7.05;;;16.50;99.90;;;;;;5071583;28;20044;-68
2022/08/02 06:11:05;;;;;;;10.10;6.78;;;16.60;99.90;;;;;;5072009;28;20059;-68
2022/08/02 06:13:31;;;;;;;13.88;6.70;;;16.70;99.90;;;;;;5070599;28;20112;-68
2022/08/02 06:15:58;;;;;;;10.38;6.43;;;16.80;99.90;;;;;;5068979;28;20104;-68
2022/08/02 06:18:27;;;;;;;11.05;6.78;;;17.00;99.90;;;;;;5069893;28;20052;-68
2022/08/02 06:20:57;;;;;;;13.70;5.97;;;17.10;99.90;;;;;;5070031;28;20079;-67
2022/08/02 06:23:24;;;;;;;11.05;5.78;;;17.20;99.90;;;;;;5068605;28;20044;-68
2022/08/02 06:25:52;;;;;;;10.63;5.80;;;17.30;99.90;;;;;;5070344;28;20044;-68
2022/08/02 06:28:19;;;;;;;8.25;5.43;;;17.40;99.90;;;;;;5069944;28;20522;-68
2022/08/02 06:30:45;;;;;;;11.43;5.75;;;17.50;99.90;;;;;;5068683;28;20045;-68
2022/08/02 06:33:11;;;;;;;12.60;5.75;;;17.50;99.90;;;;;;5069573;28;20048;-68
2022/08/02 06:35:43;;;;;;;13.10;5.47;;;17.60;99.90;;;;;;5068867;28;20111;-68
2022/08/02 06:38:13;;;;;;;13.57;5.50;;;17.90;99.90;;;;;;5070044;28;20036;-68
2022/08/02 06:40:47;;;;;;;11.30;5.10;;;17.90;99.90;;;;;;5070100;28;20040;-68
2022/08/02 06:43:22;;;;;;;10.55;5.07;;;18.00;99.90;;;;;;5069598;28;20063;-68
2022/08/02 06:45:47;;;;;;;14.68;5.25;;;18.10;99.90;;;;;;5068575;28;20435;-67
2022/08/02 06:48:13;;;;;;;14.48;5.00;;;18.30;99.90;;;;;;5069927;28;20037;-68
2022/08/02 06:50:40;;;;;;;14.25;4.57;;;18.40;99.90;;;;;;5068881;28;20119;-68
2022/08/02 06:53:08;;;;;;;14.23;5.28;;;18.50;99.90;;;;;;5058938;28;20040;-68
2022/08/02 06:55:34;;;;;;;7.60;4.35;;;18.50;99.90;;;;;;5048512;28;20036;-68
2022/08/02 06:57:59;;;;;;;10.82;4.55;;;18.50;99.90;;;;;;5048407;28;20087;-68
2022/08/02 07:00:26;;;;;;;14.85;4.72;;;18.50;99.90;;;;;;5049482;28;20070;-68
2022/08/02 07:02:52;;;;;;;15.48;4.63;;;18.50;99.90;;;;;;5049301;28;20037;-68
2022/08/02 07:05:18;;;;;;;11.68;4.38;;;18.60;99.90;;;;;;5049650;28;20037;-68
2022/08/02 07:07:44;;;;;;;7.93;3.85;;;18.70;99.90;;;;;;5047415;28;20051;-68
2022/08/02 07:10:11;;;;;;;9.00;3.78;;;18.70;99.90;;;;;;5049523;28;20052;-68
2022/08/02 07:12:36;;;;;;;7.80;3.13;;;18.80;99.90;;;;;;5049158;28;20283;-68
2022/08/02 07:15:05;;;;;;;8.25;3.47;;;19.00;99.90;;;;;;5049392;28;20040;-68
2022/08/02 07:17:31;;;;;;;8.35;3.40;;;19.10;99.90;;;;;;5048544;28;20072;-68
2022/08/02 07:19:57;;;;;;;7.25;3.50;;;19.20;99.90;;;;;;5051283;28;20037;-68
2022/08/02 07:22:25;;;;;;;8.93;3.63;;;19.30;99.90;;;;;;5051767;28;20041;-68
2022/08/02 07:24:51;;;;;;;6.07;3.35;;;19.40;99.90;;;;;;5036196;28;20045;-68
2022/08/02 07:27:17;;;;;;;8.13;3.13;;;19.50;99.90;;;;;;5074506;28;20032;-69
2022/08/02 07:29:43;;;;;;;6.82;3.10;;;19.50;99.90;;;;;;5073009;28;20476;-69
2022/08/02 07:32:08;;;;;;;8.48;2.75;;;19.50;99.90;;;;;;5071710;28;20056;-69
2022/08/02 07:34:34;;;;;;;7.90;3.05;;;19.50;99.90;;;;;;5071711;28;20094;-69
2022/08/02 07:36:59;;;;;;;6.03;2.78;;;19.40;99.90;;;;;;5073329;28;20040;-69
2022/08/02 07:39:25;;;;;;;4.28;2.70;;;19.40;99.90;;;;;;5073165;28;20090;-69
2022/08/02 07:41:51;;;;;;;6.90;3.00;;;19.40;99.90;;;;;;5073055;28;20048;-69
2022/08/02 07:44:17;;;;;;;8.10;3.15;;;19.40;99.90;;;;;;5071186;28;20505;-69
2022/08/02 07:46:44;;;;;;;7.85;2.78;;;19.50;99.90;;;;;;5072955;28;20583;-69
2022/08/02 07:49:10;;;;;;;5.32;2.40;;;19.70;99.90;;;;;;5072988;28;20076;-67
2022/08/02 07:51:36;;;;;;;7.43;2.95;;;19.80;99.90;;;;;;5071358;28;20131;-67
2022/08/02 07:54:01;;;;;;;8.27;3.40;;;19.80;99.90;;;;;;5072665;28;20036;-68
2022/08/02 07:56:27;;;;;;;6.72;2.70;;;20.00;99.90;;;;;;5072857;28;20036;-68
2022/08/02 07:58:53;;;;;;;6.57;2.60;;;20.10;99.90;;;;;;5054629;28;20094;-68
2022/08/02 08:01:19;;;;;;;6.57;2.55;;;20.20;99.90;;;;;;5072964;28;20404;-68
2022/08/02 08:03:44;;;;;;;8.82;2.85;;;20.30;99.90;;;;;;5070723;28;20040;-68
2022/08/02 08:06:10;;;;;;;8.98;2.60;;;20.40;99.90;;;;;;5071237;28;20221;-68
2022/08/02 08:08:36;;;;;;;6.47;2.88;;;20.50;99.90;;;;;;5072517;28;20193;-68
2022/08/02 08:11:01;;;;;;;5.93;2.60;;;20.60;99.90;;;;;;5071393;28;20032;-68
2022/08/02 08:13:27;;;;;;;6.60;2.97;;;20.60;99.90;;;;;;5060599;28;20040;-68
2022/08/02 08:15:53;;;;;;;13.55;3.10;;;20.70;99.90;;;;;;5063546;28;20115;-68
2022/08/02 08:18:20;;;;;;;5.88;2.60;;;20.70;99.90;;;;;;5061510;28;20063;-68
2022/08/02 08:20:45;;;;;;;7.15;2.95;;;20.80;99.90;;;;;;5053766;28;20044;-68
2022/08/02 08:23:11;;;;;;;10.23;3.03;;;20.90;99.90;;;;;;5052293;28;20059;-68
2022/08/02 08:25:37;;;;;;;5.65;2.60;;;21.00;99.90;;;;;;5052511;28;20513;-68
2022/08/02 08:28:02;;;;;;;4.38;2.28;;;21.10;99.90;;;;;;5053066;28;20045;-68
2022/08/02 08:30:28;;;;;;;6.40;2.50;;;21.20;99.90;;;;;;5055903;28;20045;-68
2022/08/02 08:32:53;;;;;;;7.38;2.90;;;21.30;99.90;;;;;;5052162;28;20131;-68
2022/08/02 08:35:19;;;;;;;10.25;2.70;;;21.40;99.90;;;;;;5052404;28;20099;-68
2022/08/02 08:37:45;;;;;;;4.95;2.55;;;21.60;99.90;;;;;;5052140;28;20043;-68
2022/08/02 08:40:11;;;;;;;4.38;2.03;;;21.60;99.90;;;;;;5051915;28;20139;-68
2022/08/02 08:42:38;;;;;;;4.85;2.05;;;21.70;99.90;;;;;;5051527;28;20045;-68
2022/08/02 08:45:05;;;;;;;3.47;1.92;;;21.70;99.90;;;;;;5050897;28;20055;-68
2022/08/02 08:47:41;;;;;;;2.97;2.08;;;21.90;99.90;;;;;;5055669;28;20116;-68
2022/08/02 08:50:15;;;;;;;4.22;1.70;;;21.80;99.90;;;;;;5070712;28;20047;-68
2022/08/02 08:52:46;;;;;;;5.38;1.48;;;21.80;99.90;;;;;;5071611;28;20377;-67
2022/08/02 08:55:14;;;;;;;5.25;2.20;;;21.80;99.90;;;;;;5071685;28;20457;-67
2022/08/02 08:57:41;;;;;;;3.28;1.85;;;21.90;99.90;;;;;;5071986;28;20157;-68
2022/08/02 09:00:15;;;;;;;6.15;1.77;;;22.10;99.90;;;;;;5071940;28;20112;-68
2022/08/02 09:02:41;;;;;;;4.22;1.50;;;22.20;99.90;;;;;;5071522;28;20147;-68
2022/08/02 09:05:12;;;;;;;2.88;1.67;;;22.20;99.90;;;;;;5070072;28;20044;-68
2022/08/02 09:07:40;;;;;;;7.00;1.85;;;22.30;99.90;;;;;;5070111;28;20044;-68
2022/08/02 09:10:42;;;;;;;6.32;1.95;;;22.40;99.90;;;;;;5071562;28;20049;-67
2022/08/02 09:13:21;;;;;;;4.88;1.70;;;22.50;99.90;;;;;;5071237;28;20107;-68
2022/08/02 09:16:02;;;;;;;4.25;1.70;;;22.50;99.90;;;;;;5071365;28;20051;-68
2022/08/02 09:18:39;;;;;;;3.63;1.75;;;22.60;99.90;;;;;;5069801;28;20040;-68
2022/08/02 09:21:09;;;;;;;6.70;2.05;;;22.60;99.90;;;;;;5069633;28;20044;-67
2022/08/02 09:23:37;;;;;;;5.85;2.10;;;22.70;99.90;;;;;;5070843;28;20032;-67
2022/08/02 09:26:05;;;;;;;6.65;2.10;;;22.90;99.90;;;;;;5069987;28;20056;-68
2022/08/02 09:28:33;;;;;;;5.85;2.30;;;23.00;99.90;;;;;;5070913;28;20370;-68
2022/08/02 09:31:08;;;;;;;4.82;2.13;;;23.10;99.90;;;;;;5069589;28;20045;-68
2022/08/02 09:33:36;;;;;;;3.70;1.80;;;23.10;99.90;;;;;;5070263;28;20040;-67
2022/08/02 09:36:13;;;;;;;6.32;2.40;;;23.30;99.90;;;;;;5071719;28;20036;-68
2022/08/02 09:38:50;;;;;;;5.70;2.13;;;23.40;99.90;;;;;;5075993;28;20052;-68
2022/08/02 09:41:24;;;;;;;7.75;2.20;;;23.40;99.90;;;;;;5069543;28;20091;-68
2022/08/02 09:43:50;;;;;;;6.88;2.60;;;23.40;99.90;;;;;;5070331;28;20047;-67
2022/08/02 09:46:21;;;;;;;5.53;2.78;;;23.40;99.90;;;;;;5070977;28;20048;-68
2022/08/02 09:48:55;;;;;;;4.18;2.85;;;23.60;99.90;;;;;;5070656;28;20067;-69
2022/08/02 09:51:23;;;;;;;10.50;3.40;;;23.50;99.90;;;;;;5070686;28;20045;-69
2022/08/02 09:53:55;;;;;;;6.95;2.65;;;23.60;99.90;;;;;;5070656;28;20032;-68
2022/08/02 09:56:22;;;;;;;6.40;2.70;;;23.70;99.90;;;;;;5069420;28;20055;-69
2022/08/02 09:58:51;;;;;;;6.95;3.03;;;23.70;99.90;;;;;;5070653;28;20063;-69
2022/08/02 10:01:18;;;;;;;4.68;2.80;;;23.80;99.90;;;;;;5052660;28;20629;-69
2022/08/02 10:03:55;;;;;;;10.88;2.95;;;24.00;99.90;;;;;;5070117;28;20048;-69
2022/08/02 10:06:21;;;;;;;6.38;3.40;;;23.90;99.90;;;;;;5070267;28;20048;-69
2022/08/02 10:08:47;;;;;;;5.38;2.75;;;24.00;99.90;;;;;;5070268;28;20054;-69
2022/08/02 10:11:13;;;;;;;6.45;2.33;;;23.90;99.90;;;;;;5070417;28;20120;-68
2022/08/02 10:13:38;;;;;;;5.93;3.22;;;24.10;99.90;;;;;;5068356;28;20508;-67
2022/08/02 10:16:05;;;;;;;7.13;3.38;;;24.10;99.90;;;;;;5070240;28;20203;-67
2022/08/02 10:18:31;;;;;;;5.22;3.25;;;24.10;99.90;;;;;;5069796;28;20056;-67
2022/08/02 10:21:01;;;;;;;7.72;3.63;;;24.10;99.90;;;;;;5069906;28;20097;-67
2022/08/02 10:23:32;;;;;;;9.75;3.75;;;24.20;99.90;;;;;;5068520;28;20052;-68
2022/08/02 10:26:02;;;;;;;6.80;3.58;;;24.10;99.90;;;;;;5068890;28;20052;-67
2022/08/02 10:28:30;;;;;;;6.22;3.30;;;24.20;99.90;;;;;;5068570;28;20044;-67
2022/08/02 10:30:59;;;;;;;6.78;3.95;;;24.30;99.90;;;;;;5070053;28;20080;-67
2022/08/02 10:33:28;;;;;;;6.10;3.60;;;24.20;99.90;;;;;;5069917;28;20546;-67
2022/08/02 10:35:56;;;;;;;9.88;3.97;;;24.20;99.90;;;;;;5069946;28;20106;-67
2022/08/02 10:38:22;;;;;;;8.15;3.65;;;24.30;99.90;;;;;;5069828;28;20489;-67
2022/08/02 10:40:51;;;;;;;7.40;3.72;;;24.50;99.90;;;;;;5068523;28;20553;-67
2022/08/02 10:43:46;;;;;;;8.15;3.90;;;24.50;99.90;;;;;;5069687;28;20350;-67
2022/08/02 10:46:26;;;;;;;5.00;3.60;;;24.50;99.90;;;;;;5070616;28;20063;-67
2022/08/02 10:49:07;;;;;;;7.80;4.10;;;24.60;99.90;;;;;;5070212;28;20154;-67
2022/08/02 10:51:52;;;;;;;6.23;3.80;;;24.90;99.90;;;;;;5069646;28;20044;-67
2022/08/02 10:54:19;;;;;;;6.07;3.58;;;24.80;99.90;;;;;;5068820;28;20036;-67
2022/08/02 10:56:51;;;;;;;7.78;3.90;;;24.90;99.90;;;;;;5069749;28;20127;-67
2022/08/02 10:59:28;;;;;;;10.13;4.38;;;24.90;99.90;;;;;;5069756;28;20390;-67
2022/08/02 11:02:01;;;;;;;5.93;3.40;;;24.90;99.90;;;;;;5069591;28;20037;-67
2022/08/02 11:04:35;;;;;;;7.43;3.47;;;25.00;99.90;;;;;;5067243;28;20234;-68
2022/08/02 11:07:15;;;;;;;15.10;3.40;;;24.90;99.90;;;;;;5069059;28;20162;-68
2022/08/02 11:09:42;;;;;;;5.30;2.92;;;24.90;99.90;;;;;;5069669;28;20055;-66
2022/08/02 11:12:12;;;;;;;6.15;3.40;;;25.10;99.90;;;;;;5069795;28;20492;-67
2022/08/02 11:14:42;;;;;;;6.93;3.17;;;25.10;99.90;;;;;;5051240;28;20028;-68
2022/08/02 11:17:09;;;;;;;6.25;2.75;;;25.10;99.90;;;;;;5069619;28;20047;-68
2022/08/02 11:20:09;;;;;;;5.75;2.58;;;25.10;99.90;;;;;;5069494;28;20095;-69
2022/08/02 11:22:35;;;;;;;6.82;2.97;;;25.10;99.90;;;;;;5067626;28;20048;-68
2022/08/02 11:25:22;;;;;;;4.15;2.83;;;25.20;99.90;;;;;;5069316;28;20118;-70
2022/08/02 11:27:53;;;;;;;9.85;3.15;;;25.20;99.90;;;;;;5069618;28;20400;-69
2022/08/02 11:30:20;;;;;;;4.90;2.80;;;25.20;99.90;;;;;;5067983;28;20070;-68
2022/08/02 11:32:47;;;;;;;7.50;2.95;;;25.30;99.90;;;;;;5068930;28;20040;-68
2022/08/02 11:35:13;;;;;;;3.85;2.72;;;25.30;99.90;;;;;;5069366;28;20116;-67
2022/08/02 11:37:41;;;;;;;8.40;2.40;;;25.40;99.90;;;;;;5068006;28;20076;-67
2022/08/02 11:40:08;;;;;;;5.13;2.70;;;25.40;99.90;;;;;;5069125;28;20040;-67
2022/08/02 11:42:36;;;;;;;4.38;2.42;;;25.50;99.90;;;;;;5055286;28;20047;-68
2022/08/02 11:45:04;;;;;;;5.47;2.50;;;25.50;99.90;;;;;;5049101;28;20041;-68
2022/08/02 11:47:30;;;;;;;3.80;2.45;;;25.60;99.90;;;;;;5049033;28;20100;-68
2022/08/02 11:50:06;;;;;;;4.82;2.85;;;25.60;99.90;;;;;;5056234;28;20045;-68
2022/08/02 11:52:34;;;;;;;7.60;2.60;;;25.50;99.90;;;;;;5053287;28;20123;-68
2022/08/02 11:54:59;;;;;;;3.03;2.28;;;25.50;99.90;;;;;;5050720;28;20045;-68
2022/08/02 11:57:25;;;;;;;2.47;1.70;;;25.50;99.90;;;;;;5050267;28;20541;-68
2022/08/02 11:59:53;;;;;;;2.35;2.03;;;25.40;99.90;;;;;;5049065;28;20049;-68
2022/08/02 12:02:21;;;;;;;7.88;2.20;;;25.50;99.90;;;;;;5048849;28;20108;-67
2022/08/02 12:04:56;;;;;;;4.43;1.90;;;25.50;99.90;;;;;;5048279;28;20112;-67
2022/08/02 12:07:40;;;;;;;4.38;1.90;;;25.40;99.90;;;;;;5051694;28;20525;-67
2022/08/02 12:10:11;;;;;;;3.40;1.73;;;25.60;99.90;;;;;;5052772;28;20033;-67
2022/08/02 12:13:06;;;;;;;2.40;1.90;;;25.60;99.90;;;;;;5050913;28;20116;-68
2022/08/02 12:15:46;;;;;;;4.75;1.75;;;25.70;99.90;;;;;;5029844;28;20068;-68
2022/08/02 12:21:00;;;;;;;2.55;1.90;;;25.80;99.90;;;;;;5026471;28;20124;-67
2022/08/02 12:23:26;;;;;;;7.82;2.30;;;25.90;99.90;;;;;;5029546;28;20099;-68
2022/08/02 12:26:05;;;;;;;2.75;1.85;;;25.90;99.90;;;;;;5013291;28;20050;-67
2022/08/02 12:28:35;;;;;;;4.30;2.17;;;25.90;99.90;;;;;;5013259;28;20065;-68
2022/08/02 12:31:01;;;;;;;5.10;2.30;;;25.90;99.90;;;;;;5029421;28;20359;-68
2022/08/02 12:33:29;;;;;;;4.28;2.35;;;25.90;99.90;;;;;;5012718;28;20056;-68
2022/08/02 12:35:55;;;;;;;3.35;2.30;;;26.00;99.90;;;;;;5029593;28;20080;-69
2022/08/02 12:38:21;;;;;;;6.30;2.13;;;26.00;99.90;;;;;;5029618;28;20059;-67
2022/08/02 12:40:47;;;;;;;4.20;2.25;;;26.10;99.90;;;;;;4987124;28;20038;-68
2022/08/02 12:43:22;;;;;;;3.42;1.92;;;26.10;99.90;;;;;;4993175;28;20537;-68
2022/08/02 12:45:54;;;;;;;3.13;2.03;;;26.10;99.90;;;;;;5009544;28;20602;-68
2022/08/02 12:48:39;;;;;;;5.25;2.33;;;26.10;99.90;;;;;;5008930;28;20057;-68
2022/08/02 12:51:28;;;;;;;3.47;2.50;;;26.00;99.90;;;;;;4988430;28;20080;-70
2022/08/02 12:53:56;;;;;;;8.23;2.47;;;26.00;99.90;;;;;;5038974;28;20033;-67
2022/08/02 12:56:27;;;;;;;5.18;2.85;;;26.00;99.90;;;;;;5051946;28;20037;-67